Estación Meteorológica Peña el Pijo (Robertgarden) [ 04/24/19 16:34:55 CEST ]

Fecha Hora Presion(HPa) Temp (°C) Humedad % Rocio (°C) Viento ( m/s) Direccion Lluvia 1Hora(mm) Lluvia 24H(mm) LLuvia Total(mm)
2019-Feb-25 01:01:44 1020.800 1.8 73 -2.6         183.37
2019-Feb-25 02:02:03 1021.100 1.3 74 -2.9         183.37
2019-Feb-25 03:02:06 1020.700 0.6 76 -3.2         183.37
2019-Feb-25 04:01:51 1020.300 1.0 78 -2.5         183.37
2019-Feb-25 05:02:16 1020.200 0.9 78 -2.6         183.37
2019-Feb-25 06:02:08 1020.000 0.5 79 -2.7         183.37
2019-Feb-25 07:01:37 1020.300 0.4 79 -2.8         183.37
2019-Feb-25 08:01:41 1020.500 -0.4 79 -3.6         183.37
2019-Feb-25 09:01:43 1020.900 1.4 83 -1.2         183.37
2019-Feb-25 10:01:36 1021.100 8.3 65 2.1         183.37
2019-Feb-25 11:01:42 1020.600 14.4 46 2.9         183.37
2019-Feb-25 12:01:52 1020.400 17.1 39 3.0         183.37
2019-Feb-25 13:01:31 1019.500 17.1 28 -1.7         183.37
2019-Feb-25 14:01:50 1018.500 19.3 23 -2.6         183.37
2019-Feb-25 15:01:35 1018.000 19.6 24 -1.8         183.37
2019-Feb-25 16:01:35 1017.700 19.3 30 1.3 1.2 ENE     183.37
2019-Feb-25 17:01:33 1017.500 18.0 31 0.6         183.37
2019-Feb-25 18:01:49 1017.800 15.1 36 0.0         183.37
2019-Feb-25 19:02:01 1018.200 11.9 42 -0.7         183.37
2019-Feb-25 20:02:04 1018.800 8.7 47 -2.1         183.37
2019-Feb-25 21:01:49 1019.400 5.4 54 -3.2         183.37
2019-Feb-25 22:01:56 1019.800 3.5 60 -3.6         183.37
2019-Feb-25 23:01:56 1019.900 2.9 64 -3.3         183.37

Temperatura Máxima:19°    Temperatura Mínima:
Presión Máxima:1021.100 Hpa    Presión Mínima:1017.500 Hpa


Volver